createdAt,value
2022-08-20T00:00:46.998Z,71.70
2022-08-20T00:03:32.047Z,71.60
2022-08-20T00:06:12.183Z,70.20
2022-08-20T00:08:41.244Z,71.70
2022-08-20T00:11:12.108Z,71.10
2022-08-20T00:13:44.851Z,70.10
2022-08-20T00:16:15.023Z,71.30
2022-08-20T00:18:43.641Z,71.00
2022-08-20T00:21:18.660Z,70.30
2022-08-20T00:23:52.523Z,71.10
2022-08-20T00:26:21.612Z,71.50
2022-08-20T00:28:49.456Z,70.60
2022-08-20T00:31:21.607Z,71.10
2022-08-20T00:33:50.547Z,71.20
2022-08-20T00:36:19.382Z,70.70
2022-08-20T00:38:48.133Z,70.70
2022-08-20T00:41:21.624Z,71.60
2022-08-20T00:44:04.427Z,70.20
2022-08-20T00:46:33.622Z,69.10
2022-08-20T00:49:03.837Z,70.00
2022-08-20T00:51:59.106Z,70.50
2022-08-20T00:54:47.332Z,70.00
2022-08-20T00:57:59.820Z,70.90
2022-08-20T01:00:35.332Z,71.00
2022-08-20T01:03:04.251Z,70.30
2022-08-20T01:05:32.487Z,71.20
2022-08-20T01:08:00.626Z,69.70
2022-08-20T01:10:32.762Z,69.40
2022-08-20T01:13:01.151Z,70.00
2022-08-20T01:15:32.130Z,69.30
2022-08-20T01:18:02.707Z,68.40
2022-08-20T01:20:37.372Z,69.50
2022-08-20T01:23:27.566Z,68.90
2022-08-20T01:26:19.087Z,67.60
2022-08-20T01:29:13.430Z,68.70
2022-08-20T01:31:42.682Z,67.80
2022-08-20T01:34:17.302Z,67.20
2022-08-20T01:36:55.107Z,68.50
2022-08-20T01:39:28.577Z,68.00
2022-08-20T01:42:19.767Z,67.00
2022-08-20T01:44:50.477Z,68.20
2022-08-20T01:47:26.627Z,67.30
2022-08-20T01:50:00.459Z,66.40
2022-08-20T01:52:52.121Z,67.60
2022-08-20T01:55:20.186Z,66.50
2022-08-20T01:57:49.055Z,67.00
2022-08-20T02:00:20.477Z,68.10
2022-08-20T02:02:52.236Z,67.70
2022-08-20T02:05:21.456Z,66.70
2022-08-20T02:07:50.164Z,67.80
2022-08-20T02:10:19.331Z,68.20
2022-08-20T02:12:47.397Z,66.70
2022-08-20T02:15:16.357Z,66.90
2022-08-20T02:17:44.764Z,67.60
2022-08-20T02:20:18.074Z,66.30
2022-08-20T02:22:51.746Z,66.00
2022-08-20T02:25:23.255Z,66.90
2022-08-20T02:27:53.011Z,66.40
2022-08-20T02:30:47.667Z,65.80
2022-08-20T02:33:18.119Z,66.80
2022-08-20T02:35:49.185Z,66.20
2022-08-20T02:38:17.608Z,65.30
2022-08-20T02:40:46.687Z,66.20
2022-08-20T02:43:15.934Z,65.90
2022-08-20T02:45:44.299Z,65.70
2022-08-20T02:48:21.620Z,66.60
2022-08-20T02:50:53.068Z,66.70
2022-08-20T02:53:21.007Z,65.90
2022-08-20T02:55:49.317Z,66.00
2022-08-20T02:58:17.659Z,67.20
2022-08-20T03:00:46.656Z,66.70
2022-08-20T03:03:15.841Z,65.80
2022-08-20T03:05:45.284Z,66.50
2022-08-20T03:08:15.051Z,67.00
2022-08-20T03:10:45.328Z,66.80
2022-08-20T03:13:15.193Z,67.40
2022-08-20T03:15:57.912Z,67.90
2022-08-20T03:18:34.107Z,67.10
2022-08-20T03:21:02.544Z,65.80
2022-08-20T03:23:31.390Z,66.80
2022-08-20T03:26:01.197Z,66.90
2022-08-20T03:28:28.978Z,66.10
2022-08-20T03:30:57.447Z,66.30
2022-08-20T03:33:25.728Z,66.90
2022-08-20T03:35:54.118Z,65.80
2022-08-20T03:38:33.038Z,65.30
2022-08-20T03:41:02.820Z,66.20
2022-08-20T03:43:31.127Z,65.50
2022-08-20T03:45:59.514Z,64.70
2022-08-20T03:48:28.098Z,65.40
2022-08-20T03:50:57.106Z,65.50
2022-08-20T03:53:25.002Z,64.80
2022-08-20T03:55:56.443Z,64.30
2022-08-20T03:58:34.827Z,65.30
2022-08-20T04:01:07.208Z,65.10
2022-08-20T04:03:36.055Z,64.20
2022-08-20T04:06:04.812Z,65.00
2022-08-20T04:08:32.908Z,65.60
2022-08-20T04:11:00.966Z,64.90
2022-08-20T04:13:31.624Z,63.80
2022-08-20T04:16:14.803Z,65.10
2022-08-20T04:19:01.691Z,65.20
2022-08-20T04:21:33.372Z,64.60
2022-08-20T04:24:05.850Z,64.90
2022-08-20T04:26:36.738Z,66.00
2022-08-20T04:29:05.437Z,65.20
2022-08-20T04:31:35.150Z,64.90
2022-08-20T04:34:05.333Z,65.30
2022-08-20T04:36:33.313Z,66.20
2022-08-20T04:39:01.467Z,65.40
2022-08-20T04:41:29.593Z,64.40
2022-08-20T04:43:58.553Z,65.80
2022-08-20T04:46:29.241Z,66.20
2022-08-20T04:48:58.344Z,65.00
2022-08-20T04:51:27.066Z,64.40
2022-08-20T04:53:56.619Z,65.60
2022-08-20T04:56:30.317Z,65.60
2022-08-20T04:59:00.634Z,64.70
2022-08-20T05:01:29.595Z,65.30
2022-08-20T05:03:59.114Z,66.60
2022-08-20T05:06:31.514Z,65.90
2022-08-20T05:09:01.000Z,65.10
2022-08-20T05:11:33.669Z,64.50
2022-08-20T05:14:09.685Z,65.50
2022-08-20T05:16:39.496Z,65.40
2022-08-20T05:19:11.301Z,64.20
2022-08-20T05:21:39.480Z,65.00
2022-08-20T05:24:08.330Z,66.00
2022-08-20T05:26:37.202Z,65.50
2022-08-20T05:29:05.558Z,63.80
2022-08-20T05:31:35.166Z,64.30
2022-08-20T05:34:11.146Z,64.80
2022-08-20T05:36:49.466Z,64.40
2022-08-20T05:39:20.127Z,62.80
2022-08-20T05:41:50.198Z,63.30
2022-08-20T05:44:19.746Z,64.20
2022-08-20T05:46:48.617Z,63.60
2022-08-20T05:49:20.640Z,62.00
2022-08-20T05:51:51.593Z,62.70
2022-08-20T05:54:19.732Z,63.60
2022-08-20T05:56:48.327Z,62.60
2022-08-20T05:59:18.256Z,61.90
2022-08-20T06:01:49.587Z,62.10
2022-08-20T06:04:28.641Z,62.80
2022-08-20T06:07:02.248Z,63.50
2022-08-20T06:09:31.934Z,63.40
2022-08-20T06:12:06.594Z,63.60
2022-08-20T06:14:35.454Z,64.30
2022-08-20T06:17:08.778Z,65.20
2022-08-20T06:19:38.163Z,64.50
2022-08-20T06:22:08.668Z,64.40
2022-08-20T06:24:46.746Z,65.50
2022-08-20T06:27:16.743Z,66.30
2022-08-20T06:29:45.220Z,65.50
2022-08-20T06:32:14.626Z,64.30
2022-08-20T06:34:49.761Z,63.90
2022-08-20T06:37:31.203Z,64.10
2022-08-20T06:40:10.160Z,64.30
2022-08-20T06:42:48.212Z,63.50
2022-08-20T06:45:20.783Z,63.00
2022-08-20T06:47:48.830Z,63.60
2022-08-20T06:50:21.296Z,64.40
2022-08-20T06:52:51.894Z,63.50
2022-08-20T06:55:21.834Z,62.00
2022-08-20T06:58:00.827Z,61.40
2022-08-20T07:00:32.022Z,62.20
2022-08-20T07:03:01.838Z,62.80
2022-08-20T07:05:32.314Z,62.20
2022-08-20T07:08:01.885Z,60.10
2022-08-20T07:10:32.851Z,59.90
2022-08-20T07:13:01.510Z,60.90
2022-08-20T07:15:29.559Z,61.90
2022-08-20T07:18:01.723Z,61.60
2022-08-20T07:20:32.663Z,61.20
2022-08-20T07:23:02.352Z,61.40
2022-08-20T07:25:34.173Z,61.40
2022-08-20T07:28:04.822Z,62.90
2022-08-20T07:31:13.630Z,61.40
2022-08-20T07:33:44.460Z,60.00
2022-08-20T07:36:14.263Z,60.30
2022-08-20T07:38:46.153Z,60.70
2022-08-20T07:41:15.506Z,61.00
2022-08-20T07:43:47.280Z,60.30
2022-08-20T07:46:20.523Z,59.60
2022-08-20T07:48:50.692Z,59.70
2022-08-20T07:51:20.828Z,59.40
2022-08-20T07:53:50.829Z,58.20
2022-08-20T07:56:22.037Z,57.00
2022-08-20T07:58:53.208Z,57.10
2022-08-20T08:01:30.056Z,57.80
2022-08-20T08:03:59.423Z,58.50
2022-08-20T08:06:31.258Z,57.60
2022-08-20T08:09:09.267Z,56.50
2022-08-20T08:11:44.959Z,56.30
2022-08-20T08:14:17.363Z,56.70
2022-08-20T08:16:46.002Z,56.90
2022-08-20T08:19:16.167Z,57.30
2022-08-20T08:21:44.753Z,58.30
2022-08-20T08:24:18.029Z,58.40
2022-08-20T08:26:50.562Z,58.50
2022-08-20T08:29:18.688Z,58.20
2022-08-20T08:31:48.448Z,58.20
2022-08-20T08:34:17.239Z,57.90
2022-08-20T08:36:46.011Z,57.60
2022-08-20T08:39:14.169Z,58.40
2022-08-20T08:41:49.097Z,58.80
2022-08-20T08:44:27.547Z,59.10
2022-08-20T08:46:59.824Z,59.30
2022-08-20T08:49:37.510Z,59.90
2022-08-20T08:52:28.087Z,59.30
2022-08-20T08:55:00.871Z,59.10
2022-08-20T08:57:29.468Z,59.30
2022-08-20T09:00:04.670Z,59.20
2022-08-20T09:02:35.782Z,57.20
2022-08-20T09:05:19.644Z,57.10
2022-08-20T09:07:53.156Z,57.60
2022-08-20T09:10:23.168Z,57.80
2022-08-20T09:12:52.697Z,57.20
2022-08-20T09:15:21.722Z,58.10
2022-08-20T09:17:50.882Z,58.40
2022-08-20T09:20:19.295Z,56.30
2022-08-20T09:22:47.075Z,56.50
2022-08-20T09:25:16.348Z,55.20
2022-08-20T09:27:44.349Z,54.80
2022-08-20T09:30:15.857Z,55.80
2022-08-20T09:32:47.960Z,55.70
2022-08-20T09:35:19.059Z,55.70
2022-08-20T09:37:50.099Z,54.30
2022-08-20T09:40:21.271Z,54.40
2022-08-20T09:42:51.413Z,54.90
2022-08-20T09:45:19.837Z,55.40
2022-08-20T09:47:54.979Z,53.50
2022-08-20T09:50:28.578Z,54.80
2022-08-20T09:52:59.156Z,53.80
2022-08-20T09:55:40.281Z,53.30
2022-08-20T09:58:33.147Z,53.80
2022-08-20T10:01:14.357Z,54.70
2022-08-20T10:03:44.271Z,55.00
2022-08-20T10:06:15.231Z,55.40
2022-08-20T10:08:44.495Z,55.60
2022-08-20T10:11:12.739Z,54.70
2022-08-20T10:13:41.039Z,54.00
2022-08-20T10:16:09.224Z,54.70
2022-08-20T10:18:37.389Z,53.80
2022-08-20T10:21:11.501Z,54.20
2022-08-20T10:23:39.644Z,54.00
2022-08-20T10:26:11.792Z,53.40
2022-08-20T10:28:40.477Z,55.00
2022-08-20T10:31:11.524Z,53.50
2022-08-20T10:33:41.909Z,52.60
2022-08-20T10:36:13.248Z,53.40
2022-08-20T10:38:44.498Z,53.30
2022-08-20T10:41:13.045Z,53.00
2022-08-20T10:43:41.010Z,52.50
2022-08-20T10:46:09.617Z,51.30
2022-08-20T10:48:37.793Z,51.50
2022-08-20T10:51:06.140Z,50.50
2022-08-20T10:53:34.452Z,50.00
2022-08-20T10:56:03.092Z,50.40
2022-08-20T10:58:39.653Z,48.90
2022-08-20T11:01:09.204Z,48.10
2022-08-20T11:03:37.421Z,48.50
2022-08-20T11:06:05.529Z,49.20
2022-08-20T11:08:35.852Z,50.30
2022-08-20T11:11:06.338Z,51.40
2022-08-20T11:13:36.088Z,52.60
2022-08-20T11:16:04.980Z,53.50
2022-08-20T11:18:33.886Z,54.80
2022-08-20T11:21:02.767Z,56.10
2022-08-20T11:23:30.854Z,55.90
2022-08-20T11:26:01.540Z,54.50
2022-08-20T11:28:32.252Z,55.80
2022-08-20T11:31:01.997Z,56.00
2022-08-20T11:33:30.067Z,56.20
2022-08-20T11:35:58.491Z,56.20
2022-08-20T11:38:26.618Z,54.60
2022-08-20T11:40:54.702Z,54.80
2022-08-20T11:43:22.874Z,55.90
2022-08-20T11:45:55.941Z,55.70
2022-08-20T11:48:24.176Z,57.20
2022-08-20T11:50:54.410Z,56.80
2022-08-20T11:53:22.432Z,56.90
2022-08-20T11:55:53.427Z,56.00
2022-08-20T11:58:21.536Z,55.70
2022-08-20T12:00:49.515Z,54.90
2022-08-20T12:03:17.848Z,53.20
2022-08-20T12:05:47.564Z,51.70
2022-08-20T12:08:27.239Z,51.00
2022-08-20T12:11:00.779Z,52.00
2022-08-20T12:13:48.106Z,52.50
2022-08-20T12:16:20.648Z,54.60
2022-08-20T12:18:49.454Z,56.10
2022-08-20T12:21:17.901Z,56.40
2022-08-20T12:23:46.125Z,55.80
2022-08-20T12:26:14.362Z,55.00
2022-08-20T12:28:42.351Z,53.80
2022-08-20T12:31:10.425Z,52.20
2022-08-20T12:33:38.448Z,51.60
2022-08-20T12:36:06.436Z,52.20
2022-08-20T12:38:34.424Z,52.60
2022-08-20T12:41:02.975Z,54.40
2022-08-20T12:43:31.025Z,56.00
2022-08-20T12:45:58.918Z,56.30
2022-08-20T12:48:26.946Z,56.30
2022-08-20T12:50:54.861Z,56.80
2022-08-20T12:53:22.978Z,58.40
2022-08-20T12:55:50.915Z,59.50
2022-08-20T12:58:19.297Z,60.50
2022-08-20T13:00:51.178Z,59.30
2022-08-20T13:03:21.532Z,58.40
2022-08-20T13:05:51.629Z,57.60
2022-08-20T13:08:19.878Z,56.70
2022-08-20T13:10:48.056Z,56.60
2022-08-20T13:13:20.697Z,56.70
2022-08-20T13:15:51.280Z,56.50
2022-08-20T13:18:20.003Z,57.50
2022-08-20T13:20:48.849Z,59.80
2022-08-20T13:23:17.070Z,61.00
2022-08-20T13:25:45.224Z,60.60
2022-08-20T13:28:13.338Z,60.30
2022-08-20T13:30:42.096Z,58.90
2022-08-20T13:33:10.663Z,59.10
2022-08-20T13:35:39.019Z,59.60
2022-08-20T13:38:07.293Z,59.30
2022-08-20T13:40:35.388Z,59.60
2022-08-20T13:43:07.175Z,59.50
2022-08-20T13:45:37.222Z,60.40
2022-08-20T13:48:06.265Z,61.20
2022-08-20T13:50:37.260Z,62.10
2022-08-20T13:53:05.632Z,62.30
2022-08-20T13:55:35.502Z,63.50
2022-08-20T13:58:08.554Z,64.60
2022-08-20T14:00:37.017Z,65.40
2022-08-20T14:03:06.116Z,65.80
2022-08-20T14:05:35.147Z,66.30
2022-08-20T14:08:13.829Z,66.00
2022-08-20T14:10:42.905Z,66.20
2022-08-20T14:13:15.408Z,66.80
2022-08-20T14:15:45.093Z,67.00
2022-08-20T14:18:14.852Z,67.80
2022-08-20T14:20:45.341Z,68.40
2022-08-20T14:23:14.652Z,69.20
2022-08-20T14:25:46.609Z,69.20
2022-08-20T14:28:23.671Z,69.20
2022-08-20T14:30:52.858Z,70.10
2022-08-20T14:33:23.144Z,70.00
2022-08-20T14:35:51.754Z,69.40
2022-08-20T14:38:19.851Z,69.40
2022-08-20T14:40:48.988Z,70.10
2022-08-20T14:43:17.612Z,70.40
2022-08-20T14:45:46.383Z,71.10
2022-08-20T14:48:15.636Z,70.70
2022-08-20T14:50:44.336Z,70.30
2022-08-20T14:53:12.576Z,71.20
2022-08-20T14:55:41.052Z,71.30
2022-08-20T14:58:13.708Z,71.50
2022-08-20T15:00:42.626Z,71.90
2022-08-20T15:03:10.846Z,71.70
2022-08-20T15:05:40.046Z,71.60
2022-08-20T15:08:08.465Z,72.20
2022-08-20T15:10:40.044Z,71.90
2022-08-20T15:13:10.512Z,72.40
2022-08-20T15:15:40.841Z,72.20
2022-08-20T15:18:09.972Z,72.90
2022-08-20T15:20:38.730Z,74.00
2022-08-20T15:23:07.777Z,74.40
2022-08-20T15:25:37.832Z,75.10
2022-08-20T15:28:10.127Z,75.70
2022-08-20T15:30:41.657Z,74.90
2022-08-20T15:33:10.943Z,75.00
2022-08-20T15:35:39.571Z,74.00
2022-08-20T15:38:08.017Z,73.10
2022-08-20T15:40:36.086Z,73.00
2022-08-20T15:43:06.269Z,73.10
2022-08-20T15:45:36.246Z,73.10
2022-08-20T15:48:20.690Z,72.60
2022-08-20T15:50:49.074Z,74.00
2022-08-20T15:53:43.425Z,73.90
2022-08-20T15:56:26.045Z,72.90
2022-08-20T15:59:21.781Z,73.50
2022-08-20T16:02:01.901Z,73.60
2022-08-20T16:04:54.406Z,72.80
2022-08-20T16:07:34.835Z,73.80
2022-08-20T16:10:28.805Z,74.40
2022-08-20T16:13:00.692Z,75.10
2022-08-20T16:15:34.873Z,75.10
2022-08-20T16:18:11.722Z,75.30
2022-08-20T16:20:52.074Z,75.80
2022-08-20T16:23:33.205Z,75.10
2022-08-20T16:26:26.925Z,76.10
2022-08-20T16:29:12.820Z,77.20
2022-08-20T16:32:02.421Z,77.40
2022-08-20T16:34:45.801Z,77.90
2022-08-20T16:37:25.849Z,79.30
2022-08-20T16:40:03.151Z,79.70
2022-08-20T16:42:40.634Z,80.10
2022-08-20T16:45:19.256Z,81.60
2022-08-20T16:47:48.301Z,76.20
2022-08-20T16:50:30.374Z,71.80
2022-08-20T16:52:58.833Z,67.90
2022-08-20T16:55:30.965Z,66.40
2022-08-20T16:57:59.592Z,65.80
2022-08-20T17:00:45.008Z,65.30
2022-08-20T17:03:31.515Z,63.90
2022-08-20T17:06:38.040Z,63.50
2022-08-20T17:09:14.887Z,63.10
2022-08-20T17:11:49.977Z,62.60
2022-08-20T17:14:19.817Z,69.30
2022-08-20T17:16:51.876Z,67.60
2022-08-20T17:19:30.785Z,63.60
2022-08-20T17:22:20.770Z,68.80
2022-08-20T17:24:53.318Z,64.40
2022-08-20T17:27:40.258Z,60.10
2022-08-20T17:30:20.421Z,60.00
2022-08-20T17:32:58.476Z,59.30
2022-08-20T17:35:35.338Z,60.10
2022-08-20T17:38:04.839Z,60.00
2022-08-20T17:40:47.593Z,60.10
2022-08-20T17:43:33.616Z,60.40
2022-08-20T17:46:11.293Z,60.20
2022-08-20T17:48:49.117Z,60.80
2022-08-20T17:51:23.395Z,60.60
2022-08-20T17:53:56.771Z,60.70
2022-08-20T17:56:40.445Z,61.40
2022-08-20T17:59:33.672Z,61.40
2022-08-20T18:02:13.902Z,62.20
2022-08-20T18:04:42.644Z,62.30
2022-08-20T18:07:13.439Z,64.20
2022-08-20T18:10:03.010Z,70.00
2022-08-20T18:12:41.004Z,75.90
2022-08-20T18:15:20.225Z,73.50
2022-08-20T18:18:18.112Z,69.80
2022-08-20T18:21:23.678Z,66.60
2022-08-20T18:24:11.143Z,66.70
2022-08-20T18:26:52.633Z,66.60
2022-08-20T18:29:34.680Z,66.40
2022-08-20T18:32:29.738Z,66.80
2022-08-20T18:35:17.589Z,66.90
2022-08-20T18:37:46.319Z,67.40
2022-08-20T18:40:28.427Z,67.70
2022-08-20T18:42:57.994Z,68.30
2022-08-20T18:45:35.969Z,69.10
2022-08-20T18:48:06.323Z,71.60
2022-08-20T18:50:40.522Z,73.70
2022-08-20T18:53:20.957Z,75.90
2022-08-20T18:56:14.732Z,74.10
2022-08-20T18:59:06.000Z,71.40
2022-08-20T19:01:39.674Z,70.20
2022-08-20T19:04:30.375Z,69.90
2022-08-20T19:07:03.106Z,70.80
2022-08-20T19:10:09.829Z,71.60
2022-08-20T19:13:20.875Z,72.00
2022-08-20T19:16:02.356Z,72.60
2022-08-20T19:18:57.011Z,72.90
2022-08-20T19:21:38.384Z,73.30
2022-08-20T19:24:08.156Z,73.40
2022-08-20T19:26:51.912Z,73.60
2022-08-20T19:29:27.306Z,74.10
2022-08-20T19:32:02.371Z,75.20
2022-08-20T19:34:32.645Z,76.30
2022-08-20T19:37:09.115Z,77.40
2022-08-20T19:39:56.452Z,77.80
2022-08-20T19:42:26.592Z,77.80
2022-08-20T19:44:59.724Z,77.40
2022-08-20T19:47:35.699Z,77.70
2022-08-20T19:50:37.045Z,77.60
2022-08-20T19:53:05.239Z,78.30
2022-08-20T19:55:36.466Z,78.70
2022-08-20T19:58:12.525Z,79.10
2022-08-20T20:00:54.347Z,79.80
2022-08-20T20:03:31.300Z,80.70
2022-08-20T20:06:13.424Z,81.70
2022-08-20T20:08:59.608Z,82.40
2022-08-20T20:11:42.103Z,83.20
2022-08-20T20:14:13.687Z,83.90
2022-08-20T20:16:42.818Z,85.30
2022-08-20T20:19:29.614Z,86.30
2022-08-20T20:22:18.999Z,87.00
2022-08-20T20:25:01.603Z,88.10
2022-08-20T20:27:32.283Z,88.80
2022-08-20T20:30:12.046Z,89.40
2022-08-20T20:32:55.857Z,89.70
2022-08-20T20:35:36.121Z,90.10
2022-08-20T20:38:28.317Z,90.60
2022-08-20T20:41:00.520Z,90.90
2022-08-20T20:43:42.205Z,91.20
2022-08-20T20:46:24.174Z,91.30
2022-08-20T20:49:14.225Z,91.10
2022-08-20T20:52:16.188Z,91.10
2022-08-20T20:54:46.870Z,91.10
2022-08-20T20:57:32.690Z,91.00
2022-08-20T21:00:14.701Z,90.80
2022-08-20T21:02:43.260Z,90.60
2022-08-20T21:05:13.110Z,90.30
2022-08-20T21:07:54.528Z,90.20
2022-08-20T21:10:25.643Z,90.10
2022-08-20T21:12:55.904Z,90.00
2022-08-20T21:15:26.445Z,89.70
2022-08-20T21:17:58.564Z,89.50
2022-08-20T21:20:27.425Z,88.80
2022-08-20T21:22:59.590Z,88.90
2022-08-20T21:25:32.124Z,89.10
2022-08-20T21:28:00.945Z,89.10
2022-08-20T21:30:30.043Z,88.50
2022-08-20T21:32:58.722Z,88.50
2022-08-20T21:35:27.269Z,88.10
2022-08-20T21:37:55.681Z,87.90
2022-08-20T21:40:23.932Z,87.60
2022-08-20T21:42:57.423Z,87.70
2022-08-20T21:45:28.494Z,87.60
2022-08-20T21:47:57.639Z,87.60
2022-08-20T21:50:26.958Z,87.70
2022-08-20T21:52:59.921Z,87.80
2022-08-20T21:55:34.061Z,88.20
2022-08-20T21:58:06.194Z,88.50
2022-08-20T22:00:55.111Z,88.80
2022-08-20T22:03:27.437Z,88.70
2022-08-20T22:05:56.693Z,88.70
2022-08-20T22:08:28.118Z,88.80
2022-08-20T22:10:58.309Z,89.10
2022-08-20T22:13:31.871Z,89.10
2022-08-20T22:16:11.644Z,89.20
2022-08-20T22:18:40.462Z,89.30
2022-08-20T22:21:14.540Z,89.50
2022-08-20T22:23:42.876Z,89.80
2022-08-20T22:26:11.419Z,89.80
2022-08-20T22:28:40.638Z,90.00
2022-08-20T22:31:09.300Z,90.00
2022-08-20T22:33:39.988Z,90.10
2022-08-20T22:36:08.449Z,90.20
2022-08-20T22:38:36.680Z,90.20
2022-08-20T22:41:09.425Z,90.20
2022-08-20T22:43:43.421Z,90.20
2022-08-20T22:46:29.196Z,90.30
2022-08-20T22:48:58.365Z,90.20
2022-08-20T22:51:34.864Z,90.10
2022-08-20T22:54:06.206Z,90.30
2022-08-20T22:56:34.941Z,90.50
2022-08-20T22:59:03.367Z,90.60
2022-08-20T23:01:32.167Z,90.70
2022-08-20T23:04:08.270Z,90.70
2022-08-20T23:06:42.610Z,90.70
2022-08-20T23:09:13.008Z,90.80
2022-08-20T23:11:42.289Z,91.00
2022-08-20T23:14:10.817Z,91.00
2022-08-20T23:16:42.235Z,91.10
2022-08-20T23:19:22.058Z,91.20
2022-08-20T23:21:51.873Z,91.40
2022-08-20T23:24:21.324Z,90.90
2022-08-20T23:26:53.009Z,90.10
2022-08-20T23:29:25.664Z,87.30
2022-08-20T23:31:57.209Z,84.50
2022-08-20T23:34:26.729Z,82.00
2022-08-20T23:36:57.279Z,80.70
2022-08-20T23:39:27.226Z,79.60
2022-08-20T23:41:56.261Z,79.20
2022-08-20T23:44:25.685Z,78.50
2022-08-20T23:46:58.737Z,78.40
2022-08-20T23:49:28.451Z,77.40
2022-08-20T23:51:58.316Z,76.60
2022-08-20T23:54:26.989Z,76.30
2022-08-20T23:56:57.008Z,76.00
2022-08-20T23:59:26.374Z,75.80
